createdAt,value
2023-05-08T00:00:56.366Z,21.52
2023-05-08T00:01:56.401Z,21.75
2023-05-08T00:02:56.567Z,21.12
2023-05-08T00:03:56.642Z,21.62
2023-05-08T00:04:56.557Z,21.10
2023-05-08T00:05:56.564Z,20.57
2023-05-08T00:06:56.588Z,21.16
2023-05-08T00:07:56.653Z,21.24
2023-05-08T00:08:56.673Z,21.22
2023-05-08T00:09:56.732Z,21.56
2023-05-08T00:10:56.757Z,21.35
2023-05-08T00:11:56.804Z,20.86
2023-05-08T00:12:56.894Z,20.94
2023-05-08T00:13:56.900Z,20.98
2023-05-08T00:14:56.946Z,21.19
2023-05-08T00:15:57.005Z,21.25
2023-05-08T00:16:57.053Z,20.49
2023-05-08T00:17:57.103Z,20.98
2023-05-08T00:18:57.122Z,20.87
2023-05-08T00:19:57.178Z,20.19
2023-05-08T00:20:57.198Z,20.61
2023-05-08T00:21:57.236Z,20.77
2023-05-08T00:22:57.287Z,20.74
2023-05-08T00:23:57.324Z,20.60
2023-05-08T00:24:57.388Z,21.19
2023-05-08T00:25:57.434Z,20.29
2023-05-08T00:26:57.462Z,20.07
2023-05-08T00:27:57.500Z,20.54
2023-05-08T00:28:57.537Z,20.63
2023-05-08T00:29:57.587Z,20.49
2023-05-08T00:30:57.649Z,20.85
2023-05-08T00:31:57.727Z,20.04
2023-05-08T00:32:57.802Z,20.08
2023-05-08T00:33:57.709Z,20.16
2023-05-08T00:34:57.717Z,20.28
2023-05-08T00:35:57.725Z,20.40
2023-05-08T00:36:57.732Z,20.08
2023-05-08T00:37:57.732Z,20.75
2023-05-08T00:38:57.736Z,20.94
2023-05-08T00:39:57.746Z,20.47
2023-05-08T00:40:57.760Z,20.44
2023-05-08T00:41:57.768Z,20.06
2023-05-08T00:42:57.777Z,20.43
2023-05-08T00:43:57.787Z,20.48
2023-05-08T00:44:57.807Z,20.27
2023-05-08T00:45:57.868Z,20.13
2023-05-08T00:46:57.836Z,19.76
2023-05-08T00:47:57.868Z,19.45
2023-05-08T00:48:57.840Z,20.40
2023-05-08T00:49:57.872Z,20.21
2023-05-08T00:50:57.910Z,19.48
2023-05-08T00:51:57.984Z,19.48
2023-05-08T00:52:58.000Z,19.63
2023-05-08T00:53:58.059Z,20.04
2023-05-08T00:54:58.098Z,19.64
2023-05-08T00:55:58.141Z,19.49
2023-05-08T00:56:58.204Z,19.73
2023-05-08T00:57:58.250Z,19.50
2023-05-08T00:58:58.301Z,19.53
2023-05-08T00:59:58.352Z,19.64
2023-05-08T01:00:58.404Z,19.41
2023-05-08T01:01:58.564Z,19.11
2023-05-08T01:02:58.583Z,19.16
2023-05-08T01:03:58.589Z,19.25
2023-05-08T01:04:58.583Z,19.26
2023-05-08T01:05:58.652Z,19.42
2023-05-08T01:06:58.698Z,19.48
2023-05-08T01:07:58.712Z,19.51
2023-05-08T01:08:58.734Z,19.55
2023-05-08T01:09:58.777Z,19.49
2023-05-08T01:10:58.767Z,19.29
2023-05-08T01:11:58.775Z,19.30
2023-05-08T01:12:58.834Z,19.39
2023-05-08T01:13:58.807Z,19.32
2023-05-08T01:14:58.818Z,19.56
2023-05-08T01:15:58.880Z,19.44
2023-05-08T01:16:58.848Z,19.60
2023-05-08T01:17:58.902Z,19.58
2023-05-08T01:18:58.852Z,19.48
2023-05-08T01:19:58.854Z,19.29
2023-05-08T01:20:58.871Z,18.96
2023-05-08T01:21:58.895Z,19.24
2023-05-08T01:22:58.906Z,19.38
2023-05-08T01:23:58.908Z,19.37
2023-05-08T01:24:58.951Z,19.16
2023-05-08T01:25:58.988Z,18.91
2023-05-08T01:26:59.038Z,18.85
2023-05-08T01:27:59.092Z,19.48
2023-05-08T01:28:59.137Z,19.33
2023-05-08T01:29:59.191Z,19.26
2023-05-08T01:30:59.269Z,19.52
2023-05-08T01:31:59.318Z,19.34
2023-05-08T01:32:59.550Z,19.07
2023-05-08T01:33:59.488Z,19.08
2023-05-08T01:34:59.468Z,19.15
2023-05-08T01:35:59.513Z,18.84
2023-05-08T01:36:59.571Z,18.80
2023-05-08T01:37:59.602Z,18.75
2023-05-08T01:38:59.666Z,18.91
2023-05-08T01:39:59.709Z,18.68
2023-05-08T01:40:59.778Z,18.97
2023-05-08T01:41:59.883Z,18.84
2023-05-08T01:42:59.882Z,18.58
2023-05-08T01:43:59.944Z,18.39
2023-05-08T01:45:00.018Z,18.76
2023-05-08T01:46:00.054Z,18.90
2023-05-08T01:47:00.248Z,18.19
2023-05-08T01:48:00.240Z,18.27
2023-05-08T01:49:00.207Z,18.61
2023-05-08T01:50:00.290Z,18.26
2023-05-08T01:51:00.332Z,18.61
2023-05-08T01:52:00.386Z,18.35
2023-05-08T01:53:00.450Z,18.71
2023-05-08T01:54:00.517Z,18.81
2023-05-08T01:55:00.576Z,18.30
2023-05-08T01:56:00.620Z,18.54
2023-05-08T01:57:00.751Z,18.17
2023-05-08T01:58:00.738Z,17.96
2023-05-08T01:59:00.800Z,18.65
2023-05-08T02:00:00.862Z,18.50
2023-05-08T02:01:00.944Z,18.34
2023-05-08T02:02:01.016Z,18.33
2023-05-08T02:03:01.161Z,17.98
2023-05-08T02:04:01.085Z,18.24
2023-05-08T02:05:01.153Z,18.20
2023-05-08T02:06:01.190Z,18.00
2023-05-08T02:07:01.250Z,18.22
2023-05-08T02:08:01.318Z,17.83
2023-05-08T02:09:01.398Z,17.69
2023-05-08T02:10:01.445Z,17.84
2023-05-08T02:11:01.494Z,17.64
2023-05-08T02:12:01.542Z,17.78
2023-05-08T02:13:01.623Z,17.92
2023-05-08T02:14:01.627Z,17.94
2023-05-08T02:15:01.621Z,17.98
2023-05-08T02:16:01.672Z,18.09
2023-05-08T02:17:01.744Z,17.78
2023-05-08T02:18:01.705Z,18.37
2023-05-08T02:19:01.672Z,17.96
2023-05-08T02:20:01.675Z,17.96
2023-05-08T02:21:01.728Z,18.07
2023-05-08T02:22:01.711Z,18.18
2023-05-08T02:23:01.725Z,18.15
2023-05-08T02:24:01.724Z,18.30
2023-05-08T02:25:01.753Z,18.02
2023-05-08T02:26:01.754Z,17.95
2023-05-08T02:27:01.786Z,18.08
2023-05-08T02:28:01.851Z,17.74
2023-05-08T02:29:01.794Z,17.62
2023-05-08T02:30:01.798Z,17.68
2023-05-08T02:31:01.804Z,17.40
2023-05-08T02:32:01.839Z,17.58
2023-05-08T02:33:01.859Z,17.34
2023-05-08T02:34:01.896Z,17.72
2023-05-08T02:35:03.630Z,16.85
2023-05-08T02:36:02.044Z,16.93
2023-05-08T02:37:02.081Z,17.36
2023-05-08T02:38:02.112Z,16.88
2023-05-08T02:39:02.169Z,16.53
2023-05-08T02:40:02.219Z,16.84
2023-05-08T02:41:02.438Z,16.93
2023-05-08T02:42:02.371Z,17.23
2023-05-08T02:43:02.383Z,16.57
2023-05-08T02:44:02.450Z,16.73
2023-05-08T02:45:02.480Z,17.04
2023-05-08T02:46:02.587Z,16.48
2023-05-08T02:47:02.617Z,16.67
2023-05-08T02:48:02.687Z,16.73
2023-05-08T02:49:02.700Z,16.26
2023-05-08T02:50:02.783Z,16.64
2023-05-08T02:51:02.804Z,16.28
2023-05-08T02:52:02.914Z,16.09
2023-05-08T02:53:02.950Z,16.49
2023-05-08T02:54:02.972Z,16.62
2023-05-08T02:55:03.026Z,16.20
2023-05-08T02:56:03.028Z,16.21
2023-05-08T02:57:03.055Z,16.27
2023-05-08T02:58:03.059Z,16.31
2023-05-08T02:59:03.062Z,16.30
2023-05-08T03:00:03.076Z,16.21
2023-05-08T03:01:03.110Z,16.28
2023-05-08T03:02:03.107Z,16.23
2023-05-08T03:03:03.201Z,16.38
2023-05-08T03:04:03.125Z,16.04
2023-05-08T03:05:03.152Z,15.71
2023-05-08T03:06:03.148Z,16.00
2023-05-08T03:07:03.157Z,15.71
2023-05-08T03:08:03.167Z,15.65
2023-05-08T03:09:03.186Z,15.88
2023-05-08T03:10:03.206Z,15.20
2023-05-08T03:11:03.228Z,15.31
2023-05-08T03:12:03.235Z,15.11
2023-05-08T03:13:03.258Z,15.10
2023-05-08T03:14:03.298Z,14.96
2023-05-08T03:15:03.355Z,14.76
2023-05-08T03:16:03.427Z,14.75
2023-05-08T03:17:03.494Z,14.81
2023-05-08T03:18:03.584Z,14.40
2023-05-08T03:19:03.597Z,14.39
2023-05-08T03:20:03.667Z,14.21
2023-05-08T03:21:03.727Z,14.10
2023-05-08T03:22:03.780Z,14.06
2023-05-08T03:23:03.948Z,13.96
2023-05-08T03:24:03.919Z,13.59
2023-05-08T03:25:03.952Z,13.35
2023-05-08T03:26:04.003Z,13.44
2023-05-08T03:27:04.072Z,13.31
2023-05-08T03:28:04.144Z,13.54
2023-05-08T03:29:04.185Z,13.22
2023-05-08T03:30:04.259Z,13.42
2023-05-08T03:31:04.367Z,13.05
2023-05-08T03:32:04.435Z,13.30
2023-05-08T03:33:04.499Z,13.01
2023-05-08T03:34:04.524Z,12.74
2023-05-08T03:35:04.574Z,12.87
2023-05-08T03:36:04.645Z,12.96
2023-05-08T03:37:04.702Z,12.81
2023-05-08T03:38:04.762Z,12.78
2023-05-08T03:39:04.827Z,12.59
2023-05-08T03:40:04.879Z,12.46
2023-05-08T03:41:04.951Z,12.53
2023-05-08T03:42:05.011Z,12.51
2023-05-08T03:43:05.079Z,12.75
2023-05-08T03:44:05.132Z,12.52
2023-05-08T03:45:05.200Z,12.48
2023-05-08T03:46:05.255Z,12.18
2023-05-08T03:47:05.430Z,12.27
2023-05-08T03:48:05.420Z,12.26
2023-05-08T03:49:05.436Z,12.39
2023-05-08T03:50:05.511Z,12.26
2023-05-08T03:51:05.568Z,12.18
2023-05-08T03:52:05.638Z,12.22
2023-05-08T03:53:05.703Z,12.28
2023-05-08T03:54:05.763Z,11.99
2023-05-08T03:55:05.839Z,11.59
2023-05-08T03:56:05.903Z,11.55
2023-05-08T03:57:05.981Z,11.39
2023-05-08T03:58:06.034Z,11.33
2023-05-08T03:59:06.103Z,11.35
2023-05-08T04:00:06.176Z,11.41
2023-05-08T04:01:06.234Z,11.70
2023-05-08T04:02:06.323Z,11.51
2023-05-08T04:03:06.462Z,11.64
2023-05-08T04:04:06.475Z,11.76
2023-05-08T04:05:06.490Z,11.53
2023-05-08T04:06:06.528Z,11.53
2023-05-08T04:07:06.596Z,11.58
2023-05-08T04:08:06.660Z,11.59
2023-05-08T04:09:06.720Z,11.59
2023-05-08T04:10:06.790Z,11.46
2023-05-08T04:11:06.807Z,11.47
2023-05-08T04:12:06.818Z,11.52
2023-05-08T04:13:06.951Z,11.53
2023-05-08T04:14:06.850Z,11.68
2023-05-08T04:15:06.873Z,11.62
2023-05-08T04:16:06.892Z,11.81
2023-05-08T04:17:07.097Z,11.94
2023-05-08T04:18:06.977Z,11.78
2023-05-08T04:19:06.992Z,11.84
2023-05-08T04:20:06.954Z,11.86
2023-05-08T04:21:07.000Z,11.79
2023-05-08T04:22:07.004Z,11.70
2023-05-08T04:23:07.005Z,11.82
2023-05-08T04:24:07.064Z,11.56
2023-05-08T04:25:07.136Z,11.55
2023-05-08T04:26:07.207Z,11.11
2023-05-08T04:27:07.281Z,11.24
2023-05-08T04:28:07.356Z,11.42
2023-05-08T04:29:07.416Z,11.48
2023-05-08T04:30:07.473Z,11.42
2023-05-08T04:31:07.550Z,11.33
2023-05-08T04:32:07.747Z,11.28
2023-05-08T04:33:07.717Z,11.29
2023-05-08T04:34:07.704Z,11.31
2023-05-08T04:35:07.705Z,11.32
2023-05-08T04:36:07.813Z,11.35
2023-05-08T04:37:07.787Z,11.44
2023-05-08T04:38:07.845Z,11.22
2023-05-08T04:39:07.751Z,11.24
2023-05-08T04:40:07.776Z,11.12
2023-05-08T04:41:07.830Z,11.14
2023-05-08T04:42:07.829Z,11.14
2023-05-08T04:43:07.838Z,11.18
2023-05-08T04:44:07.849Z,11.39
2023-05-08T04:45:07.854Z,11.21
2023-05-08T04:46:07.954Z,11.53
2023-05-08T04:47:07.944Z,11.18
2023-05-08T04:48:07.919Z,11.01
2023-05-08T04:49:07.923Z,11.02
2023-05-08T04:50:07.955Z,10.95
2023-05-08T04:51:07.978Z,10.95
2023-05-08T04:52:08.026Z,10.82
2023-05-08T04:53:08.010Z,10.71
2023-05-08T04:54:08.036Z,10.84
2023-05-08T04:55:08.117Z,10.73
2023-05-08T04:56:08.184Z,10.72
2023-05-08T04:57:08.248Z,10.73
2023-05-08T04:58:08.225Z,10.75
2023-05-08T04:59:08.255Z,10.80
2023-05-08T05:00:08.270Z,10.86
2023-05-08T05:01:08.351Z,10.61
2023-05-08T05:02:08.430Z,10.74
2023-05-08T05:03:08.411Z,10.75
2023-05-08T05:04:08.406Z,10.81
2023-05-08T05:05:08.376Z,10.85
2023-05-08T05:06:08.360Z,10.81
2023-05-08T05:07:08.396Z,10.67
2023-05-08T05:08:08.421Z,10.76
2023-05-08T05:09:08.426Z,10.67
2023-05-08T05:10:08.421Z,10.69
2023-05-08T05:11:08.440Z,10.51
2023-05-08T05:12:08.463Z,10.60
2023-05-08T05:13:08.526Z,10.56
2023-05-08T05:14:08.550Z,10.27
2023-05-08T05:15:08.626Z,10.54
2023-05-08T05:16:08.734Z,10.79
2023-05-08T05:17:08.775Z,10.53
2023-05-08T05:18:08.891Z,10.64
2023-05-08T05:19:08.906Z,10.65
2023-05-08T05:20:09.001Z,10.66
2023-05-08T05:21:08.944Z,10.65
2023-05-08T05:22:08.981Z,10.66
2023-05-08T05:23:08.974Z,10.71
2023-05-08T05:24:08.986Z,10.57
2023-05-08T05:25:09.015Z,10.44
2023-05-08T05:26:09.038Z,10.58
2023-05-08T05:27:09.069Z,10.36
2023-05-08T05:28:09.060Z,10.45
2023-05-08T05:29:09.072Z,10.45
2023-05-08T05:30:09.101Z,10.62
2023-05-08T05:31:09.158Z,10.51
2023-05-08T05:32:09.202Z,10.69
2023-05-08T05:33:09.455Z,10.69
2023-05-08T05:34:09.364Z,10.48
2023-05-08T05:35:09.457Z,10.55
2023-05-08T05:36:09.525Z,10.74
2023-05-08T05:37:09.566Z,10.47
2023-05-08T05:38:09.649Z,10.62
2023-05-08T05:39:09.752Z,10.42
2023-05-08T05:40:09.794Z,10.69
2023-05-08T05:41:09.858Z,10.58
2023-05-08T05:42:09.937Z,12.33
2023-05-08T05:43:10.007Z,14.33
2023-05-08T05:44:10.046Z,15.73
2023-05-08T05:45:10.188Z,16.92
2023-05-08T05:46:10.163Z,19.10
2023-05-08T05:47:10.409Z,20.70
2023-05-08T05:48:10.269Z,22.99
2023-05-08T05:49:10.289Z,24.79
2023-05-08T05:50:10.550Z,24.90
2023-05-08T05:51:10.318Z,25.40
2023-05-08T05:52:10.327Z,26.99
2023-05-08T05:53:10.338Z,30.29
2023-05-08T05:54:10.536Z,37.49
2023-05-08T05:55:10.427Z,42.32
2023-05-08T05:56:10.355Z,45.11
2023-05-08T05:57:10.368Z,48.79
2023-05-08T05:58:10.404Z,54.35
2023-05-08T05:59:10.363Z,57.83
2023-05-08T06:00:10.373Z,61.71
2023-05-08T06:01:10.415Z,67.70
2023-05-08T06:02:10.675Z,71.89
2023-05-08T06:03:10.563Z,77.57
2023-05-08T06:04:10.484Z,81.05
2023-05-08T06:05:10.507Z,88.12
2023-05-08T06:06:10.505Z,88.48
2023-05-08T06:07:10.408Z,90.38
2023-05-08T06:08:10.527Z,95.65
2023-05-08T06:09:10.416Z,104.24
2023-05-08T06:10:10.422Z,122.06
2023-05-08T06:11:10.424Z,131.15
2023-05-08T06:12:10.445Z,135.77
2023-05-08T06:13:10.502Z,139.59
2023-05-08T06:14:10.461Z,147.18
2023-05-08T06:15:10.651Z,152.51
2023-05-08T06:16:10.582Z,157.70
2023-05-08T06:17:10.714Z,165.60
2023-05-08T06:18:10.770Z,170.95
2023-05-08T06:19:10.810Z,182.13
2023-05-08T06:20:10.878Z,179.88
2023-05-08T06:21:11.670Z,175.08
2023-05-08T06:22:11.025Z,182.28
2023-05-08T06:23:11.129Z,185.88
2023-05-08T06:24:11.157Z,162.93
2023-05-08T06:25:11.573Z,162.79
2023-05-08T06:26:11.298Z,146.28
2023-05-08T06:27:11.408Z,126.84
2023-05-08T06:28:11.485Z,127.34
2023-05-08T06:29:11.506Z,125.44
2023-05-08T06:30:11.556Z,124.73
2023-05-08T06:31:11.630Z,119.43
2023-05-08T06:32:11.651Z,113.19
2023-05-08T06:33:11.670Z,107.87
2023-05-08T06:34:11.696Z,106.62
2023-05-08T06:35:11.975Z,103.03
2023-05-08T06:36:11.840Z,90.16
2023-05-08T06:37:12.253Z,87.33
2023-05-08T06:38:11.955Z,81.55
2023-05-08T06:39:12.019Z,73.15
2023-05-08T06:40:12.999Z,71.09
2023-05-08T06:41:14.557Z,68.35
2023-05-08T06:42:12.129Z,68.11
2023-05-08T06:43:12.173Z,68.64
2023-05-08T06:44:12.189Z,71.58
2023-05-08T06:45:12.571Z,70.41
2023-05-08T06:46:12.251Z,67.45
2023-05-08T06:47:12.157Z,72.09
2023-05-08T06:48:12.170Z,78.89
2023-05-08T06:49:12.171Z,84.27
2023-05-08T06:50:12.216Z,87.29
2023-05-08T06:51:12.189Z,89.16
2023-05-08T06:52:12.213Z,91.70
2023-05-08T06:53:12.281Z,94.89
2023-05-08T06:54:12.228Z,97.63
2023-05-08T06:55:12.540Z,105.01
2023-05-08T06:56:12.243Z,111.42
2023-05-08T06:57:13.818Z,119.35
2023-05-08T06:58:12.268Z,120.38
2023-05-08T06:59:12.280Z,123.63
2023-05-08T07:00:12.272Z,129.83
2023-05-08T07:01:12.312Z,135.65
2023-05-08T07:02:12.347Z,147.25
2023-05-08T07:03:12.343Z,149.27
2023-05-08T07:04:12.327Z,156.86
2023-05-08T07:05:12.640Z,163.76
2023-05-08T07:06:12.307Z,167.61
2023-05-08T07:07:12.411Z,172.01
2023-05-08T07:08:12.365Z,176.47
2023-05-08T07:09:12.331Z,183.77
2023-05-08T07:10:12.323Z,190.88
2023-05-08T07:11:12.299Z,194.70
2023-05-08T07:12:12.384Z,195.34
2023-05-08T07:13:12.357Z,199.23
2023-05-08T07:14:12.356Z,201.24
2023-05-08T07:15:24.803Z,206.57
2023-05-08T07:16:13.400Z,207.16
2023-05-08T07:17:12.345Z,209.32
2023-05-08T07:18:12.432Z,214.39
2023-05-08T07:19:12.362Z,222.17
2023-05-08T07:20:12.395Z,235.89
2023-05-08T07:21:12.417Z,207.82
2023-05-08T07:22:12.413Z,211.08
2023-05-08T07:23:12.361Z,218.69
2023-05-08T07:24:12.365Z,208.15
2023-05-08T07:25:12.731Z,213.52
2023-05-08T07:26:12.439Z,208.47
2023-05-08T07:27:12.423Z,214.45
2023-05-08T07:28:12.339Z,224.51
2023-05-08T07:29:12.341Z,240.79
2023-05-08T07:30:12.398Z,266.66
2023-05-08T07:31:12.456Z,268.75
2023-05-08T07:32:12.314Z,271.86
2023-05-08T07:33:12.317Z,272.52
2023-05-08T07:34:12.321Z,276.09
2023-05-08T07:35:12.646Z,286.42
2023-05-08T07:36:12.426Z,294.68
2023-05-08T07:37:12.323Z,299.50
2023-05-08T07:38:12.367Z,151.03
2023-05-08T07:39:12.331Z,81.48
2023-05-08T07:40:12.344Z,49.98
2023-05-08T07:41:12.391Z,38.89
2023-05-08T07:42:12.336Z,38.91
2023-05-08T07:43:12.365Z,29.47
2023-05-08T07:44:12.367Z,33.51
2023-05-08T07:45:12.579Z,24.66
2023-05-08T07:46:12.333Z,20.86
2023-05-08T07:47:12.430Z,17.77
2023-05-08T07:48:12.366Z,14.60
2023-05-08T07:49:12.388Z,13.40
2023-05-08T07:50:12.377Z,11.54
2023-05-08T07:51:12.352Z,11.21
2023-05-08T07:52:12.359Z,10.63
2023-05-08T07:53:12.390Z,9.94
2023-05-08T07:54:12.371Z,10.81
2023-05-08T07:55:12.524Z,8.76
2023-05-08T07:56:12.388Z,7.82
2023-05-08T07:57:12.499Z,7.33
2023-05-08T07:58:12.404Z,7.30
2023-05-08T07:59:12.439Z,7.34
2023-05-08T08:00:12.518Z,7.75
2023-05-08T08:01:12.543Z,8.95
2023-05-08T08:02:12.645Z,10.54
2023-05-08T08:03:12.825Z,10.58
2023-05-08T08:04:15.338Z,10.83
2023-05-08T08:05:13.011Z,11.04
2023-05-08T08:06:12.634Z,11.87
2023-05-08T08:07:12.613Z,13.78
2023-05-08T08:08:12.657Z,12.68
2023-05-08T08:09:12.625Z,12.69
2023-05-08T08:10:12.612Z,13.41
2023-05-08T08:11:12.635Z,10.58
2023-05-08T08:12:12.647Z,11.74
2023-05-08T08:13:12.812Z,12.00
2023-05-08T08:14:12.639Z,10.77
2023-05-08T08:15:12.877Z,10.41
2023-05-08T08:16:12.601Z,10.93
2023-05-08T08:17:12.717Z,10.11
2023-05-08T08:18:12.677Z,9.96
2023-05-08T08:19:12.694Z,11.61
2023-05-08T08:20:12.609Z,13.05
2023-05-08T08:21:12.593Z,11.74
2023-05-08T08:22:12.615Z,12.11
2023-05-08T08:23:12.638Z,12.42
2023-05-08T08:24:12.603Z,12.47
2023-05-08T08:25:12.797Z,12.37
2023-05-08T08:26:12.638Z,13.90
2023-05-08T08:27:12.661Z,12.11
2023-05-08T08:28:12.618Z,12.49
2023-05-08T08:29:12.643Z,13.82
2023-05-08T08:30:18.004Z,15.09
2023-05-08T08:31:13.708Z,15.10
2023-05-08T08:32:12.604Z,15.08
2023-05-08T08:33:12.644Z,14.85
2023-05-08T08:34:12.593Z,14.87
2023-05-08T08:35:13.093Z,13.19
2023-05-08T08:36:12.617Z,12.12
2023-05-08T08:37:12.591Z,10.47
2023-05-08T08:38:12.609Z,9.20
2023-05-08T08:39:14.736Z,8.18
2023-05-08T08:40:12.606Z,6.68
2023-05-08T08:41:12.676Z,6.32
2023-05-08T08:42:12.638Z,6.06
2023-05-08T08:43:12.655Z,5.54
2023-05-08T08:44:12.591Z,5.25
2023-05-08T08:45:12.914Z,4.90
2023-05-08T08:46:12.674Z,4.63
2023-05-08T08:47:12.629Z,4.18
2023-05-08T08:48:12.638Z,4.02
2023-05-08T08:49:12.619Z,3.80
2023-05-08T08:50:14.543Z,3.58
2023-05-08T08:51:12.757Z,3.42
2023-05-08T08:52:12.670Z,3.28
2023-05-08T08:53:12.654Z,3.08
2023-05-08T08:54:12.651Z,2.94
2023-05-08T08:55:12.860Z,2.82
2023-05-08T08:56:12.689Z,2.67
2023-05-08T08:57:12.716Z,2.61
2023-05-08T08:58:12.778Z,2.51
2023-05-08T08:59:12.808Z,2.37
2023-05-08T09:00:12.869Z,2.26
2023-05-08T09:01:12.933Z,2.22
2023-05-08T09:02:13.180Z,2.10
2023-05-08T09:03:13.092Z,2.12
2023-05-08T09:04:13.149Z,2.06
2023-05-08T09:05:13.350Z,2.00
2023-05-08T09:06:13.178Z,2.00
2023-05-08T09:07:13.418Z,1.98
2023-05-08T09:08:13.318Z,1.91
2023-05-08T09:09:13.408Z,1.94
2023-05-08T09:10:13.477Z,1.96
2023-05-08T09:11:13.490Z,1.86
2023-05-08T09:12:13.508Z,1.73
2023-05-08T09:13:13.726Z,1.70
2023-05-08T09:14:13.654Z,1.54
2023-05-08T09:15:14.147Z,1.52
2023-05-08T09:16:13.784Z,1.53
2023-05-08T09:17:13.912Z,1.50
2023-05-08T09:18:13.860Z,1.43
2023-05-08T09:19:13.863Z,1.42
2023-05-08T09:20:14.189Z,1.37
2023-05-08T09:21:13.988Z,1.33
2023-05-08T09:22:14.046Z,1.28
2023-05-08T09:23:14.260Z,1.27
2023-05-08T09:24:14.208Z,1.21
2023-05-08T09:25:14.520Z,1.20
2023-05-08T09:26:14.254Z,1.19
2023-05-08T09:27:14.337Z,1.20
2023-05-08T09:28:14.339Z,1.27
2023-05-08T09:29:14.437Z,1.32
2023-05-08T09:30:14.877Z,1.36
2023-05-08T09:31:14.484Z,1.43
2023-05-08T09:32:14.553Z,1.38
2023-05-08T09:33:14.589Z,1.33
2023-05-08T09:34:14.596Z,1.27
2023-05-08T09:35:14.913Z,1.30
2023-05-08T09:36:14.660Z,1.28
2023-05-08T09:37:14.774Z,1.20
2023-05-08T09:38:15.336Z,1.22
2023-05-08T09:39:15.438Z,1.44
2023-05-08T09:40:14.786Z,1.64
2023-05-08T09:41:14.805Z,2.10
2023-05-08T09:42:14.901Z,2.64
2023-05-08T09:43:14.889Z,3.32
2023-05-08T09:44:14.906Z,4.21
2023-05-08T09:45:15.112Z,4.94
2023-05-08T09:46:14.966Z,5.68
2023-05-08T09:47:14.968Z,6.90
2023-05-08T09:48:14.991Z,7.83
2023-05-08T09:49:14.955Z,9.28
2023-05-08T09:50:15.247Z,10.60
2023-05-08T09:51:15.069Z,12.68
2023-05-08T09:52:15.185Z,15.25
2023-05-08T09:53:15.239Z,17.35
2023-05-08T09:54:15.408Z,19.45
2023-05-08T09:55:15.474Z,19.21
2023-05-08T09:56:16.268Z,17.17
2023-05-08T09:57:15.514Z,14.87
2023-05-08T09:58:15.582Z,18.32
2023-05-08T09:59:15.659Z,17.96
2023-05-08T10:00:15.975Z,21.34
2023-05-08T10:01:15.821Z,23.89
2023-05-08T10:02:15.834Z,23.76
2023-05-08T10:03:15.908Z,17.47
2023-05-08T10:04:15.930Z,20.18
2023-05-08T10:05:16.032Z,16.67
2023-05-08T10:06:16.075Z,19.15
2023-05-08T10:07:16.111Z,18.66
2023-05-08T10:08:16.187Z,16.97
2023-05-08T10:09:16.280Z,20.12
2023-05-08T10:10:16.259Z,20.20
2023-05-08T10:11:16.404Z,19.47
2023-05-08T10:12:16.267Z,20.32
2023-05-08T10:13:16.363Z,16.00
2023-05-08T10:14:16.252Z,16.54
2023-05-08T10:15:16.249Z,19.27
2023-05-08T10:16:16.386Z,21.69
2023-05-08T10:17:16.346Z,21.48
2023-05-08T10:18:16.335Z,21.46
2023-05-08T10:19:16.398Z,20.13
2023-05-08T10:20:16.452Z,16.37
2023-05-08T10:21:16.539Z,19.10
2023-05-08T10:22:16.611Z,16.95
2023-05-08T10:23:16.723Z,18.49
2023-05-08T10:24:16.781Z,14.56
2023-05-08T10:25:16.772Z,12.16
2023-05-08T10:26:16.855Z,12.54
2023-05-08T10:27:16.984Z,9.15
2023-05-08T10:28:16.951Z,9.28
2023-05-08T10:29:17.067Z,9.89
2023-05-08T10:30:17.110Z,10.86
2023-05-08T10:31:17.172Z,10.81
2023-05-08T10:32:17.146Z,10.88
2023-05-08T10:33:17.130Z,11.30
2023-05-08T10:34:17.147Z,11.73
2023-05-08T10:35:17.125Z,13.24
2023-05-08T10:36:17.145Z,16.69
2023-05-08T10:37:17.124Z,18.49
2023-05-08T10:38:17.125Z,21.32
2023-05-08T10:39:17.132Z,25.15
2023-05-08T10:40:17.143Z,29.23
2023-05-08T10:41:17.163Z,33.83
2023-05-08T10:42:17.198Z,39.14
2023-05-08T10:43:17.391Z,44.98
2023-05-08T10:44:17.279Z,50.68
2023-05-08T10:45:17.271Z,51.88
2023-05-08T10:46:17.339Z,56.59
2023-05-08T10:47:17.282Z,79.00
2023-05-08T10:48:17.264Z,110.08
2023-05-08T10:49:17.241Z,184.24
2023-05-08T10:50:17.285Z,231.55
2023-05-08T10:51:17.225Z,243.15
2023-05-08T10:52:17.230Z,203.24
2023-05-08T10:53:17.245Z,185.81
2023-05-08T10:54:17.246Z,183.08
2023-05-08T10:55:17.210Z,179.21
2023-05-08T10:56:17.190Z,173.25
2023-05-08T10:57:17.192Z,178.60
2023-05-08T10:58:17.190Z,182.06
2023-05-08T10:59:17.236Z,183.97
2023-05-08T11:00:17.186Z,190.77
2023-05-08T11:01:17.226Z,200.28
2023-05-08T11:02:17.226Z,212.81
2023-05-08T11:03:30.759Z,213.54
2023-05-08T11:04:18.279Z,214.58
2023-05-08T11:05:17.209Z,224.33
2023-05-08T11:06:17.197Z,248.93
2023-05-08T11:07:17.151Z,299.02
2023-05-08T11:08:17.165Z,387.81
2023-05-08T11:09:17.193Z,414.03
2023-05-08T11:10:17.167Z,435.67
2023-05-08T11:11:17.117Z,474.08
2023-05-08T11:12:17.169Z,437.99
2023-05-08T11:13:17.162Z,437.29
2023-05-08T11:14:17.101Z,422.41
2023-05-08T11:15:17.083Z,461.11
2023-05-08T11:16:17.098Z,477.34
2023-05-08T11:17:17.057Z,444.80
2023-05-08T11:18:17.042Z,435.50
2023-05-08T11:19:17.101Z,436.15
2023-05-08T11:20:17.402Z,434.29
2023-05-08T11:21:17.091Z,432.31
2023-05-08T11:22:17.273Z,428.47
2023-05-08T11:23:17.208Z,423.05
2023-05-08T11:24:17.270Z,436.48
2023-05-08T11:25:17.325Z,448.17
2023-05-08T11:26:17.342Z,459.05
2023-05-08T11:27:17.439Z,460.40
2023-05-08T11:28:17.632Z,464.97
2023-05-08T11:29:17.493Z,464.64
2023-05-08T11:30:17.561Z,466.36
2023-05-08T11:31:17.703Z,485.38
2023-05-08T11:32:17.651Z,417.64
2023-05-08T11:33:17.749Z,432.46
2023-05-08T11:34:17.948Z,235.48
2023-05-08T11:35:17.936Z,165.61
2023-05-08T11:36:17.839Z,137.25
2023-05-08T11:37:17.852Z,117.34
2023-05-08T11:38:17.951Z,101.30
2023-05-08T11:39:17.846Z,88.07
2023-05-08T11:40:17.852Z,92.26
2023-05-08T11:41:17.832Z,98.82
2023-05-08T11:42:17.828Z,83.31
2023-05-08T11:43:17.827Z,89.50
2023-05-08T11:44:17.869Z,74.24
2023-05-08T11:45:17.845Z,72.86
2023-05-08T11:46:17.941Z,67.71
2023-05-08T11:47:17.913Z,71.81
2023-05-08T11:48:17.846Z,73.30
2023-05-08T11:49:20.217Z,72.02
2023-05-08T11:50:19.025Z,72.30
2023-05-08T11:51:17.805Z,72.40
2023-05-08T11:52:17.827Z,73.87
2023-05-08T11:53:17.813Z,75.82
2023-05-08T11:54:17.848Z,77.13
2023-05-08T11:55:17.826Z,77.10
2023-05-08T11:56:17.836Z,76.10
2023-05-08T11:57:17.818Z,75.54
2023-05-08T11:58:17.860Z,75.69
2023-05-08T11:59:17.843Z,75.97
2023-05-08T12:00:18.074Z,75.84
2023-05-08T12:01:17.848Z,75.37
2023-05-08T12:02:17.830Z,74.86
2023-05-08T12:03:18.094Z,73.43
2023-05-08T12:04:17.934Z,73.51
2023-05-08T12:05:17.823Z,72.22
2023-05-08T12:06:17.819Z,71.59
2023-05-08T12:07:17.818Z,69.72
2023-05-08T12:08:17.803Z,69.73
2023-05-08T12:09:17.837Z,68.42
2023-05-08T12:10:18.233Z,68.23
2023-05-08T12:11:17.810Z,68.21
2023-05-08T12:12:17.807Z,67.15
2023-05-08T12:13:17.848Z,65.99
2023-05-08T12:14:17.779Z,66.16
2023-05-08T12:15:17.791Z,64.95
2023-05-08T12:16:17.761Z,65.26
2023-05-08T12:17:17.901Z,64.54
2023-05-08T12:18:17.749Z,62.98
2023-05-08T12:19:17.785Z,63.83
2023-05-08T12:20:18.052Z,62.72
2023-05-08T12:21:17.806Z,61.03
2023-05-08T12:22:17.755Z,60.47
2023-05-08T12:23:17.792Z,60.33
2023-05-08T12:24:17.742Z,59.36
2023-05-08T12:25:17.775Z,59.30
2023-05-08T12:26:17.753Z,57.95
2023-05-08T12:27:17.749Z,57.23
2023-05-08T12:28:17.807Z,58.34
2023-05-08T12:29:17.775Z,58.37
2023-05-08T12:30:18.248Z,58.43
2023-05-08T12:31:17.787Z,57.85
2023-05-08T12:32:17.777Z,56.50
2023-05-08T12:33:17.802Z,55.86
2023-05-08T12:34:17.795Z,55.26
2023-05-08T12:35:17.784Z,54.27
2023-05-08T12:36:17.750Z,53.52
2023-05-08T12:37:17.794Z,52.64
2023-05-08T12:38:17.780Z,51.45
2023-05-08T12:39:17.782Z,52.21
2023-05-08T12:40:17.737Z,51.62
2023-05-08T12:41:17.744Z,50.55
2023-05-08T12:42:17.749Z,49.84
2023-05-08T12:43:17.789Z,49.74
2023-05-08T12:44:17.731Z,48.03
2023-05-08T12:45:17.753Z,47.63
2023-05-08T12:46:17.778Z,47.70
2023-05-08T12:47:17.729Z,47.71
2023-05-08T12:48:17.867Z,47.20
2023-05-08T12:49:17.795Z,46.79
2023-05-08T12:50:17.741Z,46.48
2023-05-08T12:51:17.832Z,45.33
2023-05-08T12:52:17.757Z,44.59